Observations for VALLEY RAF, United Kingdom (EGOV)

EGOV 190250Z AUTO 19015KT 9000 HZ FEW016/// BKN090/// 16/13 Q1004   
EGOV 190150Z AUTO 21021KT 9000 HZ FEW021/// 15/13 Q1005 
EGOV 190050Z AUTO 20022KT 8000 HZ FEW013/// SCT020/// BKN170/// 16/14 Q1005 
EGOV 182350Z AUTO 20022KT 6000 HZ FEW013/// BKN150/// 16/14 Q1005   
EGOV 182250Z AUTO 20024KT 7000 HZ FEW012/// BKN110/// 16/14 Q1005   
EGOV 182150Z AUTO 20022KT 6000 HZ BKN140/// 16/14 Q1004 
EGOV 182050Z AUTO 20024KT 7000 HZ FEW080/// 16/14 Q1004 
EGOV 181950Z AUTO 20023KT 6000 HZ FEW090/// SCT220/// 16/15 Q1004   
EGOV 181850Z 20025KT 9999 FEW009 BKN130 16/15 Q1003 BLU 
EGOV 181750Z 20025KT 9999 BKN010 BKN120 17/15 Q1003 GRN 
EGOV 181650Z 20028KT 8000 HZ BKN010 SCT040 BKN130 17/15 Q1003 GRN   
EGOV 181550Z 19029KT 7000 HZ SCT010 BKN150 17/15 Q1002 GRN TEMPO FEW010 BLU 
EGOV 181450Z 19028KT 7000 HZ BKN011 17/15 Q1003 GRN TEMPO SCT015 WHT
EGOV 181425Z 19026KT 9000 HZ SCT013 18/16 Q1002 GRN TEMPO FEW013 BLU
EGOV 181425Z 19026KT 9000 HZ SCT013 18/16 Q1002 GRN TEMPO FEW013 BLU
EGOV 181350Z 20030KT 9000 HZ FEW010 18/15 Q1002 BLU TEMPO SCT010 GRN
EGOV 181250Z 20025KT 9999 FEW009 18/15 Q1002 BLU TEMPO BKN010 GRN   
EGOV 181150Z 20026KT 9999 BKN010 17/15 Q1002 GRN NOSIG  
EGOV 181110Z 21027KT 9999 SCT014 16/13 Q1002 GRN TEMPO FEW014 BLU   
EGOV 181110Z 21027KT 9999 SCT014 16/13 Q1002 GRN TEMPO FEW014 BLU
EGOV 181050Z 21027G38KT 9999 FEW013 17/13 Q1001 BLU TEMPO SCT010 GRN
EGOV 181020Z 22025KT 9999 BKN014 17/14 Q1001 GRN TEMPO FEW014 BLU   
EGOV 181020Z 22025KT 9999 BKN014 17/14 Q1001 GRN TEMPO FEW014 BLU
EGOV 180950Z 22026KT 9999 FEW014 16/13 Q1001 BLU TEMPO SCT013 GRN   
EGOV 180850Z 23028G39KT 9999 FEW012 16/14 Q0999 BLU TEMPO SCT010 GRN
EGOV 180750Z 22024KT 8000 HZ SCT007 OVC020 16/15 Q0998 GRN TEMPO 6000 -DZ SCT004 YLO2   
EGOV 180650Z 22023KT 9999 FEW006 BKN023 16/16 Q0996 WHT TEMPO 6000 -DZ SCT004 YLO2  
EGOV 180550Z 22020KT 8000 BR FEW004 BKN025 16/16 Q0994 BLU TEMPO 3000 DZ SCT004 YLO2
EGOV 180450Z AUTO 20022KT 3300 BR BKN002/// 16/16 Q0992 RERA
EGOV 180350Z AUTO 17023KT 3600 -RA BKN006/// 17/16 Q0992
EGOV 180250Z AUTO 16026KT 4500 -RA BKN011/// 17/16 Q0993